sensor_id;sensor_type;location;lat;lon;timestamp;pressure;altitude;pressure_sealevel;temperature;humidity
14204;BME280;7185;51.854;6.622;2022-07-23T00:01:48;101570.97;;;18.33;100.00
14204;BME280;7185;51.854;6.622;2022-07-23T00:04:21;101577.31;;;18.29;100.00
14204;BME280;7185;51.854;6.622;2022-07-23T00:06:53;101575.38;;;18.34;100.00
14204;BME280;7185;51.854;6.622;2022-07-23T00:09:25;101580.91;;;18.28;100.00
14204;BME280;7185;51.854;6.622;2022-07-23T00:11:56;101577.81;;;18.40;100.00
14204;BME280;7185;51.854;6.622;2022-07-23T00:14:28;101580.53;;;18.39;100.00
14204;BME280;7185;51.854;6.622;2022-07-23T00:17:01;101573.50;;;18.36;100.00
14204;BME280;7185;51.854;6.622;2022-07-23T00:19:33;101581.00;;;18.25;100.00
14204;BME280;7185;51.854;6.622;2022-07-23T00:22:04;101574.91;;;18.21;100.00
14204;BME280;7185;51.854;6.622;2022-07-23T00:24:36;101564.22;;;18.24;100.00
14204;BME280;7185;51.854;6.622;2022-07-23T00:27:07;101568.09;;;18.39;100.00
14204;BME280;7185;51.854;6.622;2022-07-23T00:29:39;101563.88;;;18.34;100.00
14204;BME280;7185;51.854;6.622;2022-07-23T00:32:12;101552.84;;;18.21;100.00
14204;BME280;7185;51.854;6.622;2022-07-23T00:34:44;101559.28;;;18.13;100.00
14204;BME280;7185;51.854;6.622;2022-07-23T00:37:16;101553.25;;;18.08;100.00
14204;BME280;7185;51.854;6.622;2022-07-23T00:39:47;101563.84;;;18.08;100.00
14204;BME280;7185;51.854;6.622;2022-07-23T00:42:19;101554.00;;;18.12;100.00
14204;BME280;7185;51.854;6.622;2022-07-23T00:44:51;101561.81;;;18.16;100.00
14204;BME280;7185;51.854;6.622;2022-07-23T00:47:24;101553.91;;;18.15;100.00
14204;BME280;7185;51.854;6.622;2022-07-23T00:49:56;101549.78;;;18.06;100.00
14204;BME280;7185;51.854;6.622;2022-07-23T00:52:27;101550.94;;;17.97;100.00
14204;BME280;7185;51.854;6.622;2022-07-23T00:54:59;101549.56;;;17.86;100.00
14204;BME280;7185;51.854;6.622;2022-07-23T00:57:31;101555.13;;;17.78;100.00
14204;BME280;7185;51.854;6.622;2022-07-23T01:00:04;101552.53;;;17.76;100.00
14204;BME280;7185;51.854;6.622;2022-07-23T01:02:37;101555.31;;;17.72;100.00
14204;BME280;7185;51.854;6.622;2022-07-23T01:05:10;101564.69;;;17.55;100.00
14204;BME280;7185;51.854;6.622;2022-07-23T01:07:42;101558.63;;;17.51;100.00
14204;BME280;7185;51.854;6.622;2022-07-23T01:10:14;101563.19;;;17.46;100.00
14204;BME280;7185;51.854;6.622;2022-07-23T01:13:05;101550.44;;;17.31;100.00
14204;BME280;7185;51.854;6.622;2022-07-23T01:15:38;101547.88;;;17.28;100.00
14204;BME280;7185;51.854;6.622;2022-07-23T01:18:11;101553.91;;;17.33;100.00
14204;BME280;7185;51.854;6.622;2022-07-23T01:20:43;101551.53;;;17.24;100.00
14204;BME280;7185;51.854;6.622;2022-07-23T01:23:16;101547.34;;;17.16;100.00
14204;BME280;7185;51.854;6.622;2022-07-23T01:25:48;101543.91;;;17.13;100.00
14204;BME280;7185;51.854;6.622;2022-07-23T01:28:21;101556.69;;;17.00;100.00
14204;BME280;7185;51.854;6.622;2022-07-23T01:30:52;101550.47;;;17.01;100.00
14204;BME280;7185;51.854;6.622;2022-07-23T01:33:24;101554.03;;;17.00;100.00
14204;BME280;7185;51.854;6.622;2022-07-23T01:35:56;101542.22;;;17.10;100.00
14204;BME280;7185;51.854;6.622;2022-07-23T01:38:29;101552.34;;;16.97;100.00
14204;BME280;7185;51.854;6.622;2022-07-23T01:41:01;101548.25;;;16.85;100.00
14204;BME280;7185;51.854;6.622;2022-07-23T01:43:32;101558.13;;;16.80;100.00
14204;BME280;7185;51.854;6.622;2022-07-23T01:46:04;101556.50;;;16.75;100.00
14204;BME280;7185;51.854;6.622;2022-07-23T01:48:36;101557.28;;;16.78;100.00
14204;BME280;7185;51.854;6.622;2022-07-23T01:51:08;101555.47;;;16.80;100.00
14204;BME280;7185;51.854;6.622;2022-07-23T01:53:41;101554.94;;;16.67;100.00
14204;BME280;7185;51.854;6.622;2022-07-23T01:56:12;101550.31;;;16.76;100.00
14204;BME280;7185;51.854;6.622;2022-07-23T01:58:45;101559.50;;;16.62;100.00
14204;BME280;7185;51.854;6.622;2022-07-23T02:01:17;101548.13;;;16.59;100.00
14204;BME280;7185;51.854;6.622;2022-07-23T02:03:48;101554.41;;;16.54;100.00
14204;BME280;7185;51.854;6.622;2022-07-23T02:06:20;101543.09;;;16.49;100.00
14204;BME280;7185;51.854;6.622;2022-07-23T02:08:53;101544.00;;;16.48;100.00
14204;BME280;7185;51.854;6.622;2022-07-23T02:11:25;101537.13;;;16.41;100.00
14204;BME280;7185;51.854;6.622;2022-07-23T02:13:56;101542.19;;;16.50;100.00
14204;BME280;7185;51.854;6.622;2022-07-23T02:16:28;101530.75;;;16.48;100.00
14204;BME280;7185;51.854;6.622;2022-07-23T02:18:59;101536.09;;;16.47;100.00
14204;BME280;7185;51.854;6.622;2022-07-23T02:21:31;101535.56;;;16.34;100.00
14204;BME280;7185;51.854;6.622;2022-07-23T02:24:05;101540.88;;;16.34;100.00
14204;BME280;7185;51.854;6.622;2022-07-23T02:26:37;101540.91;;;16.32;100.00
14204;BME280;7185;51.854;6.622;2022-07-23T02:29:08;101543.00;;;16.19;100.00
14204;BME280;7185;51.854;6.622;2022-07-23T02:31:40;101542.16;;;16.19;100.00
14204;BME280;7185;51.854;6.622;2022-07-23T02:34:12;101535.84;;;16.24;100.00
14204;BME280;7185;51.854;6.622;2022-07-23T02:36:44;101529.75;;;16.21;100.00
14204;BME280;7185;51.854;6.622;2022-07-23T02:39:17;101536.91;;;16.17;100.00
14204;BME280;7185;51.854;6.622;2022-07-23T02:41:49;101535.47;;;16.05;100.00
14204;BME280;7185;51.854;6.622;2022-07-23T02:44:20;101540.03;;;15.99;100.00
14204;BME280;7185;51.854;6.622;2022-07-23T02:46:52;101543.56;;;15.99;100.00
14204;BME280;7185;51.854;6.622;2022-07-23T02:49:24;101543.63;;;15.96;100.00
14204;BME280;7185;51.854;6.622;2022-07-23T02:51:55;101552.72;;;15.84;100.00
14204;BME280;7185;51.854;6.622;2022-07-23T02:54:28;101546.59;;;15.82;100.00
14204;BME280;7185;51.854;6.622;2022-07-23T02:57:00;101545.81;;;15.77;100.00
14204;BME280;7185;51.854;6.622;2022-07-23T02:59:32;101555.66;;;15.72;100.00
14204;BME280;7185;51.854;6.622;2022-07-23T03:02:03;101556.50;;;15.74;100.00
14204;BME280;7185;51.854;6.622;2022-07-23T03:04:35;101554.75;;;15.73;100.00
14204;BME280;7185;51.854;6.622;2022-07-23T03:07:07;101554.09;;;15.63;100.00
14204;BME280;7185;51.854;6.622;2022-07-23T03:09:40;101549.63;;;15.65;100.00
14204;BME280;7185;51.854;6.622;2022-07-23T03:12:11;101544.22;;;15.70;100.00
14204;BME280;7185;51.854;6.622;2022-07-23T03:14:43;101553.97;;;15.69;100.00
14204;BME280;7185;51.854;6.622;2022-07-23T03:17:15;101549.81;;;15.57;100.00
14204;BME280;7185;51.854;6.622;2022-07-23T03:19:46;101545.44;;;15.56;100.00
14204;BME280;7185;51.854;6.622;2022-07-23T03:22:18;101552.47;;;15.57;100.00
14204;BME280;7185;51.854;6.622;2022-07-23T03:24:51;101550.88;;;15.50;100.00
14204;BME280;7185;51.854;6.622;2022-07-23T03:27:26;101553.47;;;15.52;100.00
14204;BME280;7185;51.854;6.622;2022-07-23T03:29:59;101555.25;;;15.51;100.00
14204;BME280;7185;51.854;6.622;2022-07-23T03:32:31;101554.63;;;15.41;100.00
14204;BME280;7185;51.854;6.622;2022-07-23T03:35:03;101556.50;;;15.36;100.00
14204;BME280;7185;51.854;6.622;2022-07-23T03:37:35;101554.75;;;15.35;100.00
14204;BME280;7185;51.854;6.622;2022-07-23T03:40:09;101554.75;;;15.35;100.00
14204;BME280;7185;51.854;6.622;2022-07-23T03:42:41;101546.94;;;15.30;100.00
14204;BME280;7185;51.854;6.622;2022-07-23T03:45:13;101554.00;;;15.28;100.00
14204;BME280;7185;51.854;6.622;2022-07-23T03:47:45;101551.47;;;15.25;100.00
14204;BME280;7185;51.854;6.622;2022-07-23T03:50:16;101562.97;;;15.21;100.00
14204;BME280;7185;51.854;6.622;2022-07-23T03:52:48;101554.09;;;15.25;100.00
14204;BME280;7185;51.854;6.622;2022-07-23T03:55:21;101561.22;;;15.22;100.00
14204;BME280;7185;51.854;6.622;2022-07-23T03:57:53;101554.16;;;15.22;100.00
14204;BME280;7185;51.854;6.622;2022-07-23T04:00:25;101558.44;;;15.28;100.00
14204;BME280;7185;51.854;6.622;2022-07-23T04:02:56;101554.97;;;15.26;100.00
14204;BME280;7185;51.854;6.622;2022-07-23T04:05:28;101556.81;;;15.22;100.00
14204;BME280;7185;51.854;6.622;2022-07-23T04:08:00;101562.03;;;15.24;100.00
14204;BME280;7185;51.854;6.622;2022-07-23T04:10:33;101565.72;;;15.18;100.00
14204;BME280;7185;51.854;6.622;2022-07-23T04:13:04;101570.91;;;15.21;100.00
14204;BME280;7185;51.854;6.622;2022-07-23T04:15:36;101562.97;;;15.21;100.00
14204;BME280;7185;51.854;6.622;2022-07-23T04:18:08;101575.06;;;15.33;100.00
14204;BME280;7185;51.854;6.622;2022-07-23T04:20:39;101576.69;;;15.39;100.00
14204;BME280;7185;51.854;6.622;2022-07-23T04:23:11;101572.34;;;15.36;100.00
14204;BME280;7185;51.854;6.622;2022-07-23T04:25:44;101565.91;;;15.48;100.00
14204;BME280;7185;51.854;6.622;2022-07-23T04:28:16;101567.78;;;15.43;100.00
14204;BME280;7185;51.854;6.622;2022-07-23T04:30:48;101564.19;;;15.45;100.00
14204;BME280;7185;51.854;6.622;2022-07-23T04:33:19;101567.34;;;15.61;100.00
14204;BME280;7185;51.854;6.622;2022-07-23T04:35:51;101570.75;;;15.67;100.00
14204;BME280;7185;51.854;6.622;2022-07-23T04:38:23;101568.88;;;15.72;100.00
14204;BME280;7185;51.854;6.622;2022-07-23T04:40:56;101568.72;;;15.78;100.00
14204;BME280;7185;51.854;6.622;2022-07-23T04:43:28;101582.88;;;15.75;100.00
14204;BME280;7185;51.854;6.622;2022-07-23T04:45:59;101577.44;;;15.83;100.00
14204;BME280;7185;51.854;6.622;2022-07-23T04:48:31;101584.25;;;15.93;100.00
14204;BME280;7185;51.854;6.622;2022-07-23T04:51:03;101581.50;;;15.98;100.00
14204;BME280;7185;51.854;6.622;2022-07-23T04:53:37;101577.78;;;16.04;100.00
14204;BME280;7185;51.854;6.622;2022-07-23T04:56:10;101579.25;;;16.17;100.00
14204;BME280;7185;51.854;6.622;2022-07-23T04:58:41;101576.34;;;16.27;100.00
14204;BME280;7185;51.854;6.622;2022-07-23T05:01:13;101583.16;;;16.35;100.00
14204;BME280;7185;51.854;6.622;2022-07-23T05:03:45;101577.84;;;16.37;100.00
14204;BME280;7185;51.854;6.622;2022-07-23T05:06:18;101583.03;;;16.40;100.00
14204;BME280;7185;51.854;6.622;2022-07-23T05:08:50;101578.47;;;16.47;100.00
14204;BME280;7185;51.854;6.622;2022-07-23T05:11:23;101593.44;;;16.48;100.00
14204;BME280;7185;51.854;6.622;2022-07-23T05:13:55;101582.72;;;16.52;100.00
14204;BME280;7185;51.854;6.622;2022-07-23T05:16:26;101580.75;;;16.59;100.00
14204;BME280;7185;51.854;6.622;2022-07-23T05:18:58;101585.75;;;16.70;100.00
14204;BME280;7185;51.854;6.622;2022-07-23T05:21:30;101583.06;;;16.71;100.00
14204;BME280;7185;51.854;6.622;2022-07-23T05:24:01;101586.59;;;16.70;100.00
14204;BME280;7185;51.854;6.622;2022-07-23T05:26:34;101594.53;;;16.72;100.00
14204;BME280;7185;51.854;6.622;2022-07-23T05:29:06;101601.41;;;16.79;100.00
14204;BME280;7185;51.854;6.622;2022-07-23T05:31:38;101601.94;;;16.91;100.00
14204;BME280;7185;51.854;6.622;2022-07-23T05:34:09;101599.28;;;16.92;100.00
14204;BME280;7185;51.854;6.622;2022-07-23T05:36:41;101605.63;;;17.16;97.38
14204;BME280;7185;51.854;6.622;2022-07-23T05:39:13;101608.41;;;17.13;96.51
14204;BME280;7185;51.854;6.622;2022-07-23T05:41:46;101613.25;;;17.27;95.79
14204;BME280;7185;51.854;6.622;2022-07-23T05:44:17;101609.16;;;17.47;95.14
14204;BME280;7185;51.854;6.622;2022-07-23T05:46:49;101612.31;;;17.58;95.55
14204;BME280;7185;51.854;6.622;2022-07-23T05:49:21;101613.72;;;17.70;94.87
14204;BME280;7185;51.854;6.622;2022-07-23T05:51:52;101623.56;;;17.66;94.33
14204;BME280;7185;51.854;6.622;2022-07-23T05:54:24;101622.06;;;17.86;93.69
14204;BME280;7185;51.854;6.622;2022-07-23T05:56:57;101631.53;;;17.95;92.67
14204;BME280;7185;51.854;6.622;2022-07-23T05:59:29;101632.16;;;18.03;92.39
14204;BME280;7185;51.854;6.622;2022-07-23T06:02:01;101627.25;;;18.18;92.11
14204;BME280;7185;51.854;6.622;2022-07-23T06:04:32;101627.44;;;18.11;91.42
14204;BME280;7185;51.854;6.622;2022-07-23T06:07:04;101631.81;;;17.86;91.76
14204;BME280;7185;51.854;6.622;2022-07-23T06:09:36;101633.28;;;17.94;92.62
14204;BME280;7185;51.854;6.622;2022-07-23T06:12:09;101633.63;;;18.12;91.66
14204;BME280;7185;51.854;6.622;2022-07-23T06:14:41;101631.78;;;18.14;90.77
14204;BME280;7185;51.854;6.622;2022-07-23T06:17:13;101635.31;;;18.14;90.88
14204;BME280;7185;51.854;6.622;2022-07-23T06:19:44;101637.16;;;18.12;91.15
14204;BME280;7185;51.854;6.622;2022-07-23T06:22:16;101640.41;;;18.21;91.77
14204;BME280;7185;51.854;6.622;2022-07-23T06:24:48;101641.63;;;18.37;91.14
14204;BME280;7185;51.854;6.622;2022-07-23T06:27:21;101641.03;;;18.54;89.37
14204;BME280;7185;51.854;6.622;2022-07-23T06:29:53;101640.91;;;18.83;87.46
14204;BME280;7185;51.854;6.622;2022-07-23T06:32:25;101637.34;;;18.84;86.02
14204;BME280;7185;51.854;6.622;2022-07-23T06:34:56;101637.03;;;18.93;85.18
14204;BME280;7185;51.854;6.622;2022-07-23T06:37:28;101642.91;;;19.03;83.46
14204;BME280;7185;51.854;6.622;2022-07-23T06:39:59;101638.44;;;19.03;85.24
14204;BME280;7185;51.854;6.622;2022-07-23T06:42:32;101644.78;;;19.23;82.65
14204;BME280;7185;51.854;6.622;2022-07-23T06:45:07;101643.78;;;19.25;82.08
14204;BME280;7185;51.854;6.622;2022-07-23T06:47:39;101646.03;;;19.36;81.92
14204;BME280;7185;51.854;6.622;2022-07-23T06:50:12;101645.94;;;19.39;80.75
14204;BME280;7185;51.854;6.622;2022-07-23T06:52:43;101643.84;;;19.48;82.33
14204;BME280;7185;51.854;6.622;2022-07-23T06:55:15;101651.44;;;19.57;81.12
14204;BME280;7185;51.854;6.622;2022-07-23T06:57:48;101641.38;;;19.65;80.52
14204;BME280;7185;51.854;6.622;2022-07-23T07:00:20;101650.28;;;19.64;80.14
14204;BME280;7185;51.854;6.622;2022-07-23T07:02:53;101655.50;;;19.67;80.49
14204;BME280;7185;51.854;6.622;2022-07-23T07:05:25;101645.44;;;19.74;80.35
14204;BME280;7185;51.854;6.622;2022-07-23T07:07:57;101657.09;;;19.71;79.72
14204;BME280;7185;51.854;6.622;2022-07-23T07:10:29;101659.06;;;19.66;79.36
14204;BME280;7185;51.854;6.622;2022-07-23T07:13:02;101657.91;;;19.73;79.79
14204;BME280;7185;51.854;6.622;2022-07-23T07:15:34;101660.47;;;19.77;80.01
14204;BME280;7185;51.854;6.622;2022-07-23T07:18:05;101664.91;;;19.76;80.30
14204;BME280;7185;51.854;6.622;2022-07-23T07:20:37;101664.63;;;19.84;78.72
14204;BME280;7185;51.854;6.622;2022-07-23T07:23:09;101665.63;;;19.80;79.30
14204;BME280;7185;51.854;6.622;2022-07-23T07:25:40;101662.56;;;19.68;78.41
14204;BME280;7185;51.854;6.622;2022-07-23T07:28:13;101672.06;;;19.74;78.93
14204;BME280;7185;51.854;6.622;2022-07-23T07:30:45;101678.97;;;20.02;79.16
14204;BME280;7185;51.854;6.622;2022-07-23T07:33:17;101674.16;;;20.12;79.44
14204;BME280;7185;51.854;6.622;2022-07-23T07:35:48;101679.50;;;20.32;77.17
14204;BME280;7185;51.854;6.622;2022-07-23T07:38:20;101678.84;;;20.48;75.64
14204;BME280;7185;51.854;6.622;2022-07-23T07:40:52;101678.72;;;20.51;76.03
14204;BME280;7185;51.854;6.622;2022-07-23T07:43:25;101673.84;;;20.61;75.48
14204;BME280;7185;51.854;6.622;2022-07-23T07:45:56;101677.94;;;20.90;74.14
14204;BME280;7185;51.854;6.622;2022-07-23T07:48:30;101680.34;;;20.96;73.32
14204;BME280;7185;51.854;6.622;2022-07-23T07:51:03;101676.59;;;21.00;70.71
14204;BME280;7185;51.854;6.622;2022-07-23T07:53:34;101675.19;;;21.12;69.52
14204;BME280;7185;51.854;6.622;2022-07-23T07:56:06;101680.44;;;21.14;69.12
14204;BME280;7185;51.854;6.622;2022-07-23T07:58:40;101682.69;;;21.23;68.29
14204;BME280;7185;51.854;6.622;2022-07-23T08:01:11;101680.25;;;21.38;68.65
14204;BME280;7185;51.854;6.622;2022-07-23T08:03:43;101683.53;;;21.24;67.01
14204;BME280;7185;51.854;6.622;2022-07-23T08:06:14;101678.81;;;21.49;67.86
14204;BME280;7185;51.854;6.622;2022-07-23T08:08:46;101675.91;;;21.54;68.12
14204;BME280;7185;51.854;6.622;2022-07-23T08:11:18;101672.25;;;21.57;68.03
14204;BME280;7185;51.854;6.622;2022-07-23T08:13:51;101672.91;;;21.62;67.30
14204;BME280;7185;51.854;6.622;2022-07-23T08:16:23;101675.13;;;21.71;67.41
14204;BME280;7185;51.854;6.622;2022-07-23T08:18:55;101671.91;;;21.64;66.21
14204;BME280;7185;51.854;6.622;2022-07-23T08:21:27;101679.00;;;21.83;65.83
14204;BME280;7185;51.854;6.622;2022-07-23T08:23:58;101689.44;;;22.07;66.04
14204;BME280;7185;51.854;6.622;2022-07-23T08:26:30;101693.75;;;22.09;65.63
14204;BME280;7185;51.854;6.622;2022-07-23T08:29:03;101693.25;;;22.01;62.52
14204;BME280;7185;51.854;6.622;2022-07-23T08:31:35;101687.09;;;22.18;62.76
14204;BME280;7185;51.854;6.622;2022-07-23T08:34:06;101691.09;;;22.09;62.41
14204;BME280;7185;51.854;6.622;2022-07-23T08:36:38;101689.75;;;22.01;61.69
14204;BME280;7185;51.854;6.622;2022-07-23T08:39:10;101690.16;;;22.10;63.74
14204;BME280;7185;51.854;6.622;2022-07-23T08:41:41;101699.66;;;22.16;63.04
14204;BME280;7185;51.854;6.622;2022-07-23T08:44:16;101695.63;;;22.07;61.81
14204;BME280;7185;51.854;6.622;2022-07-23T08:46:48;101692.72;;;22.12;62.61
14204;BME280;7185;51.854;6.622;2022-07-23T08:49:20;101687.69;;;21.88;64.91
14204;BME280;7185;51.854;6.622;2022-07-23T08:51:52;101689.44;;;22.07;62.76
14204;BME280;7185;51.854;6.622;2022-07-23T08:54:24;101691.81;;;22.31;63.79
14204;BME280;7185;51.854;6.622;2022-07-23T08:56:55;101690.88;;;22.67;64.43
14204;BME280;7185;51.854;6.622;2022-07-23T08:59:28;101685.75;;;22.97;61.54
14204;BME280;7185;51.854;6.622;2022-07-23T09:02:02;101683.84;;;23.17;61.87
14204;BME280;7185;51.854;6.622;2022-07-23T09:04:34;101683.50;;;23.23;58.46
14204;BME280;7185;51.854;6.622;2022-07-23T09:07:05;101680.25;;;23.16;59.49
14204;BME280;7185;51.854;6.622;2022-07-23T09:09:37;101691.56;;;23.39;59.75
14204;BME280;7185;51.854;6.622;2022-07-23T09:12:10;101685.41;;;23.21;57.57
14204;BME280;7185;51.854;6.622;2022-07-23T09:14:44;101690.50;;;23.42;60.45
14204;BME280;7185;51.854;6.622;2022-07-23T09:17:18;101686.03;;;23.58;57.27
14204;BME280;7185;51.854;6.622;2022-07-23T09:19:49;101688.63;;;23.92;59.58
14204;BME280;7185;51.854;6.622;2022-07-23T09:22:22;101688.16;;;24.15;57.82
14204;BME280;7185;51.854;6.622;2022-07-23T09:25:06;101686.16;;;24.19;54.61
14204;BME280;7185;51.854;6.622;2022-07-23T09:27:53;101694.34;;;24.32;55.57
14204;BME280;7185;51.854;6.622;2022-07-23T09:30:27;101689.47;;;24.08;54.49
14204;BME280;7185;51.854;6.622;2022-07-23T09:33:09;101689.94;;;24.31;56.50
14204;BME280;7185;51.854;6.622;2022-07-23T09:35:47;101682.81;;;24.46;56.78
14204;BME280;7185;51.854;6.622;2022-07-23T09:38:20;101690.69;;;24.63;55.81
14204;BME280;7185;51.854;6.622;2022-07-23T09:41:06;101687.56;;;24.71;53.77
14204;BME280;7185;51.854;6.622;2022-07-23T09:43:38;101688.28;;;24.59;55.67
14204;BME280;7185;51.854;6.622;2022-07-23T09:46:19;101686.19;;;24.64;54.86
14204;BME280;7185;51.854;6.622;2022-07-23T09:48:51;101685.59;;;25.04;54.66
14204;BME280;7185;51.854;6.622;2022-07-23T09:51:23;101683.00;;;25.17;54.15
14204;BME280;7185;51.854;6.622;2022-07-23T09:54:02;101680.88;;;25.51;51.99
14204;BME280;7185;51.854;6.622;2022-07-23T09:56:36;101683.34;;;25.68;52.25
14204;BME280;7185;51.854;6.622;2022-07-23T09:59:08;101679.94;;;25.52;49.99
14204;BME280;7185;51.854;6.622;2022-07-23T10:01:43;101683.97;;;25.30;52.22
14204;BME280;7185;51.854;6.622;2022-07-23T10:04:15;101682.84;;;25.20;52.10
14204;BME280;7185;51.854;6.622;2022-07-23T10:06:48;101690.28;;;25.43;51.28
14204;BME280;7185;51.854;6.622;2022-07-23T10:09:24;101682.47;;;25.68;52.06
14204;BME280;7185;51.854;6.622;2022-07-23T10:11:58;101686.59;;;26.01;51.58
14204;BME280;7185;51.854;6.622;2022-07-23T10:14:47;101688.78;;;26.49;49.81
14204;BME280;7185;51.854;6.622;2022-07-23T10:17:20;101685.69;;;26.15;49.84
14204;BME280;7185;51.854;6.622;2022-07-23T10:19:52;101683.78;;;26.30;48.80
14204;BME280;7185;51.854;6.622;2022-07-23T10:22:25;101685.44;;;26.45;49.15
14204;BME280;7185;51.854;6.622;2022-07-23T10:25:08;101674.34;;;26.24;49.02
14204;BME280;7185;51.854;6.622;2022-07-23T10:28:01;101673.72;;;26.46;49.23
14204;BME280;7185;51.854;6.622;2022-07-23T10:30:41;101676.09;;;26.51;48.78
14204;BME280;7185;51.854;6.622;2022-07-23T10:33:27;101672.22;;;26.55;49.64
14204;BME280;7185;51.854;6.622;2022-07-23T10:36:09;101670.41;;;26.55;49.56
14204;BME280;7185;51.854;6.622;2022-07-23T10:38:51;101670.81;;;26.62;47.40
14204;BME280;7185;51.854;6.622;2022-07-23T10:41:32;101671.44;;;26.00;47.57
14204;BME280;7185;51.854;6.622;2022-07-23T10:44:09;101669.38;;;26.18;49.45
14204;BME280;7185;51.854;6.622;2022-07-23T10:46:55;101663.00;;;26.19;49.01
14204;BME280;7185;51.854;6.622;2022-07-23T10:49:34;101660.56;;;26.16;49.44
14204;BME280;7185;51.854;6.622;2022-07-23T10:52:17;101659.94;;;26.38;48.90
14204;BME280;7185;51.854;6.622;2022-07-23T10:54:51;101658.25;;;26.76;48.12
14204;BME280;7185;51.854;6.622;2022-07-23T10:57:24;101665.59;;;26.99;48.00
14204;BME280;7185;51.854;6.622;2022-07-23T11:00:13;101662.13;;;26.97;48.32
14204;BME280;7185;51.854;6.622;2022-07-23T11:02:46;101664.22;;;27.31;46.10
14204;BME280;7185;51.854;6.622;2022-07-23T11:05:21;101663.84;;;27.24;46.43
14204;BME280;7185;51.854;6.622;2022-07-23T11:08:13;101664.34;;;27.66;46.58
14204;BME280;7185;51.854;6.622;2022-07-23T11:10:53;101663.50;;;28.14;45.22
14204;BME280;7185;51.854;6.622;2022-07-23T11:13:31;101661.72;;;28.26;44.53
14204;BME280;7185;51.854;6.622;2022-07-23T11:16:17;101665.72;;;28.68;43.73
14204;BME280;7185;51.854;6.622;2022-07-23T11:19:08;101671.91;;;28.81;43.02
14204;BME280;7185;51.854;6.622;2022-07-23T11:21:49;101664.78;;;29.03;41.57
14204;BME280;7185;51.854;6.622;2022-07-23T11:24:23;101671.75;;;28.71;41.74
14204;BME280;7185;51.854;6.622;2022-07-23T11:27:00;101666.03;;;28.99;43.50
14204;BME280;7185;51.854;6.622;2022-07-23T11:29:40;101671.91;;;29.26;42.12
14204;BME280;7185;51.854;6.622;2022-07-23T11:32:22;101662.44;;;29.21;42.70
14204;BME280;7185;51.854;6.622;2022-07-23T11:34:54;101660.34;;;29.36;43.69
14204;BME280;7185;51.854;6.622;2022-07-23T11:37:38;101659.09;;;29.29;42.45
14204;BME280;7185;51.854;6.622;2022-07-23T11:40:12;101661.81;;;29.29;42.04
14204;BME280;7185;51.854;6.622;2022-07-23T11:42:52;101662.41;;;28.53;41.53
14204;BME280;7185;51.854;6.622;2022-07-23T11:45:29;101662.97;;;28.34;42.53
14204;BME280;7185;51.854;6.622;2022-07-23T11:48:01;101667.41;;;28.46;42.54
14204;BME280;7185;51.854;6.622;2022-07-23T11:50:35;101658.28;;;29.05;43.67
14204;BME280;7185;51.854;6.622;2022-07-23T11:53:08;101656.31;;;28.85;40.88
14204;BME280;7185;51.854;6.622;2022-07-23T11:55:40;101664.69;;;28.35;41.17
14204;BME280;7185;51.854;6.622;2022-07-23T11:58:11;101661.16;;;28.10;43.08
14204;BME280;7185;51.854;6.622;2022-07-23T12:00:43;101662.56;;;28.27;43.82
14204;BME280;7185;51.854;6.622;2022-07-23T12:03:14;101653.13;;;28.80;43.06
14204;BME280;7185;51.854;6.622;2022-07-23T12:05:46;101644.88;;;29.49;42.55
14204;BME280;7185;51.854;6.622;2022-07-23T12:08:19;101649.31;;;29.39;40.77
14204;BME280;7185;51.854;6.622;2022-07-23T12:10:51;101641.63;;;28.89;41.96
14204;BME280;7185;51.854;6.622;2022-07-23T12:13:23;101649.31;;;29.16;41.96
14204;BME280;7185;51.854;6.622;2022-07-23T12:15:56;101651.00;;;29.29;40.58
14204;BME280;7185;51.854;6.622;2022-07-23T12:18:28;101649.31;;;29.16;40.98
14204;BME280;7185;51.854;6.622;2022-07-23T12:21:04;101642.03;;;29.95;40.06
14204;BME280;7185;51.854;6.622;2022-07-23T12:23:38;101643.09;;;30.46;37.39
14204;BME280;7185;51.854;6.622;2022-07-23T12:26:10;101644.66;;;30.60;37.32
14204;BME280;7185;51.854;6.622;2022-07-23T12:28:51;101648.13;;;30.29;36.31
14204;BME280;7185;51.854;6.622;2022-07-23T12:31:26;101644.63;;;30.91;36.46
14204;BME280;7185;51.854;6.622;2022-07-23T12:33:57;101642.53;;;31.35;36.46
14204;BME280;7185;51.854;6.622;2022-07-23T12:36:37;101641.72;;;31.64;35.88
14204;BME280;7185;51.854;6.622;2022-07-23T12:39:11;101653.03;;;31.89;35.53
14204;BME280;7185;51.854;6.622;2022-07-23T12:41:51;101656.19;;;31.94;34.27
14204;BME280;7185;51.854;6.622;2022-07-23T12:44:23;101646.03;;;31.16;34.14
14204;BME280;7185;51.854;6.622;2022-07-23T12:46:54;101643.50;;;31.24;34.97
14204;BME280;7185;51.854;6.622;2022-07-23T12:49:26;101660.19;;;30.89;34.83
14204;BME280;7185;51.854;6.622;2022-07-23T12:51:58;101649.63;;;30.95;35.85
14204;BME280;7185;51.854;6.622;2022-07-23T12:54:31;101654.09;;;30.23;36.78
14204;BME280;7185;51.854;6.622;2022-07-23T12:57:03;101662.28;;;29.89;37.31
14204;BME280;7185;51.854;6.622;2022-07-23T12:59:34;101666.59;;;30.24;37.52
14204;BME280;7185;51.854;6.622;2022-07-23T13:02:08;101664.50;;;30.49;37.44
14204;BME280;7185;51.854;6.622;2022-07-23T13:04:40;101659.94;;;30.71;35.97
14204;BME280;7185;51.854;6.622;2022-07-23T13:07:12;101662.63;;;30.49;37.05
14204;BME280;7185;51.854;6.622;2022-07-23T13:09:45;101654.94;;;30.97;38.18
14204;BME280;7185;51.854;6.622;2022-07-23T13:12:16;101660.19;;;30.89;35.52
14204;BME280;7185;51.854;6.622;2022-07-23T13:14:48;101652.53;;;30.09;36.66
14204;BME280;7185;51.854;6.622;2022-07-23T13:17:20;101650.00;;;30.50;35.98
14204;BME280;7185;51.854;6.622;2022-07-23T13:19:52;101649.06;;;30.61;35.41
14204;BME280;7185;51.854;6.622;2022-07-23T13:22:23;101653.72;;;30.16;35.15
14204;BME280;7185;51.854;6.622;2022-07-23T13:24:56;101650.56;;;30.11;35.47
14204;BME280;7185;51.854;6.622;2022-07-23T13:27:28;101648.56;;;30.13;36.74